createdAt,value
2018-09-26T00:01:57.356Z,78.26
2018-09-26T00:04:28.683Z,76.89
2018-09-26T00:06:57.581Z,75.50
2018-09-26T00:09:26.159Z,74.54
2018-09-26T00:11:54.304Z,73.96
2018-09-26T00:14:22.526Z,76.47
2018-09-26T00:16:50.895Z,77.65
2018-09-26T00:19:19.119Z,77.25
2018-09-26T00:21:47.307Z,75.77
2018-09-26T00:24:15.505Z,74.84
2018-09-26T00:26:43.796Z,74.90
2018-09-26T00:29:11.934Z,75.05
2018-09-26T00:31:40.179Z,75.45
2018-09-26T00:34:08.419Z,76.21
2018-09-26T00:36:36.612Z,76.66
2018-09-26T00:39:06.432Z,77.34
2018-09-26T00:41:34.609Z,76.85
2018-09-26T00:44:02.960Z,76.89
2018-09-26T00:46:31.164Z,76.49
2018-09-26T00:48:59.427Z,76.74
2018-09-26T00:51:27.778Z,77.02
2018-09-26T00:53:55.912Z,77.59
2018-09-26T00:56:24.230Z,78.22
2018-09-26T00:58:52.463Z,79.45
2018-09-26T01:01:20.763Z,79.20
2018-09-26T01:03:49.067Z,79.79
2018-09-26T01:06:17.298Z,82.03
2018-09-26T01:08:45.630Z,81.99
2018-09-26T01:11:13.898Z,83.27
2018-09-26T01:13:42.172Z,84.14
2018-09-26T01:16:10.442Z,84.19
2018-09-26T01:18:38.628Z,84.26
2018-09-26T01:21:07.775Z,84.06
2018-09-26T01:23:36.081Z,84.55
2018-09-26T01:26:04.428Z,84.72
2018-09-26T01:28:32.651Z,85.79
2018-09-26T01:31:01.115Z,85.90
2018-09-26T01:33:29.309Z,87.16
2018-09-26T01:35:57.591Z,87.23
2018-09-26T01:38:25.871Z,86.46
2018-09-26T01:40:54.132Z,86.41
2018-09-26T01:43:22.358Z,86.14
2018-09-26T01:45:51.126Z,85.48
2018-09-26T01:48:19.355Z,85.29
2018-09-26T01:50:47.736Z,85.68
2018-09-26T01:53:15.968Z,85.89
2018-09-26T01:55:44.242Z,86.95
2018-09-26T01:58:12.492Z,87.85
2018-09-26T02:00:40.672Z,88.64
2018-09-26T02:03:08.857Z,88.99
2018-09-26T02:05:37.033Z,89.35
2018-09-26T02:08:05.248Z,89.29
2018-09-26T02:10:33.409Z,89.53
2018-09-26T02:13:01.643Z,90.64
2018-09-26T02:15:29.850Z,91.35
2018-09-26T02:17:58.216Z,92.23
2018-09-26T02:20:26.439Z,92.69
2018-09-26T02:22:54.648Z,93.05
2018-09-26T02:25:22.907Z,93.06
2018-09-26T02:27:51.155Z,93.27
2018-09-26T02:30:19.407Z,92.99
2018-09-26T02:32:47.770Z,92.60
2018-09-26T02:35:16.448Z,93.05
2018-09-26T02:37:44.884Z,93.93
2018-09-26T02:40:14.196Z,94.02
2018-09-26T02:42:42.392Z,94.25
2018-09-26T02:45:10.685Z,94.38
2018-09-26T02:47:38.857Z,95.29
2018-09-26T02:50:07.036Z,95.71
2018-09-26T02:52:35.307Z,95.60
2018-09-26T02:55:03.520Z,95.57
2018-09-26T02:57:31.827Z,95.57
2018-09-26T03:00:00.048Z,96.56
2018-09-26T03:02:28.751Z,96.15
2018-09-26T03:04:56.977Z,95.49
2018-09-26T03:07:25.311Z,94.21
2018-09-26T03:09:53.578Z,93.79
2018-09-26T03:12:21.763Z,94.52
2018-09-26T03:14:49.966Z,94.75
2018-09-26T03:17:18.664Z,94.94
2018-09-26T03:19:46.879Z,95.47
2018-09-26T03:22:15.134Z,95.54
2018-09-26T03:24:43.644Z,95.73
2018-09-26T03:27:11.937Z,96.17
2018-09-26T03:29:40.055Z,96.55
2018-09-26T03:32:08.462Z,97.03
2018-09-26T03:34:36.792Z,98.06
2018-09-26T03:37:05.707Z,98.31
2018-09-26T03:39:33.891Z,98.37
2018-09-26T03:42:02.198Z,98.71
2018-09-26T03:44:30.669Z,98.70
2018-09-26T03:46:58.978Z,98.96
2018-09-26T03:49:27.351Z,97.92
2018-09-26T03:51:55.636Z,97.95
2018-09-26T03:54:23.966Z,98.06
2018-09-26T03:56:52.332Z,98.27
2018-09-26T03:59:20.623Z,98.06
2018-09-26T04:01:48.975Z,97.97
2018-09-26T04:04:17.188Z,97.74
2018-09-26T04:06:45.441Z,98.47
2018-09-26T04:09:13.620Z,97.97
2018-09-26T04:11:41.852Z,97.70
2018-09-26T04:14:10.117Z,97.26
2018-09-26T04:16:38.411Z,97.18
2018-09-26T04:19:06.739Z,96.98
2018-09-26T04:21:34.955Z,97.17
2018-09-26T04:24:03.175Z,97.06
2018-09-26T04:26:31.554Z,96.67
2018-09-26T04:28:59.725Z,95.98
2018-09-26T04:31:27.923Z,94.99
2018-09-26T04:33:56.178Z,94.86
2018-09-26T04:36:24.343Z,95.17
2018-09-26T04:38:52.939Z,95.27
2018-09-26T04:41:20.985Z,95.47
2018-09-26T04:43:49.196Z,95.53
2018-09-26T04:46:17.489Z,96.10
2018-09-26T04:48:45.750Z,95.71
2018-09-26T04:51:14.020Z,95.51
2018-09-26T04:53:42.224Z,95.29
2018-09-26T04:56:10.419Z,95.27
2018-09-26T04:58:38.621Z,95.12
2018-09-26T05:01:06.773Z,94.70
2018-09-26T05:03:34.914Z,94.04
2018-09-26T05:06:03.183Z,94.46
2018-09-26T05:08:31.415Z,94.33
2018-09-26T05:10:59.642Z,93.58
2018-09-26T05:13:27.862Z,93.91
2018-09-26T05:15:56.306Z,94.65
2018-09-26T05:18:24.573Z,95.29
2018-09-26T05:20:52.818Z,95.45
2018-09-26T05:23:21.034Z,96.00
2018-09-26T05:25:49.157Z,97.06
2018-09-26T05:28:17.305Z,98.31
2018-09-26T05:30:45.535Z,98.07
2018-09-26T05:33:13.785Z,98.59
2018-09-26T05:35:42.043Z,99.08
2018-09-26T05:38:10.155Z,99.42
2018-09-26T05:40:38.434Z,100.00
2018-09-26T05:43:06.679Z,99.75
2018-09-26T05:45:34.803Z,100.00
2018-09-26T05:48:03.115Z,100.00
2018-09-26T05:50:31.353Z,100.00
2018-09-26T05:52:59.506Z,99.57
2018-09-26T05:55:27.732Z,99.15
2018-09-26T05:57:55.975Z,99.33
2018-09-26T06:00:24.202Z,99.29
2018-09-26T06:02:52.483Z,99.61
2018-09-26T06:05:20.747Z,99.83
2018-09-26T06:07:48.907Z,99.10
2018-09-26T06:10:17.307Z,98.04
2018-09-26T06:12:45.527Z,97.67
2018-09-26T06:15:13.759Z,96.38
2018-09-26T06:17:42.006Z,93.35
2018-09-26T06:20:10.220Z,92.07
2018-09-26T06:22:38.529Z,89.35
2018-09-26T06:25:06.800Z,89.00
2018-09-26T06:27:35.172Z,88.85
2018-09-26T06:30:03.379Z,89.35
2018-09-26T06:32:32.040Z,89.86
2018-09-26T06:35:00.359Z,90.23
2018-09-26T06:37:28.620Z,90.70
2018-09-26T06:39:56.773Z,89.83
2018-09-26T06:42:24.990Z,86.79
2018-09-26T06:44:53.256Z,85.28
2018-09-26T06:47:21.550Z,84.40
2018-09-26T06:49:49.775Z,83.37
2018-09-26T06:52:18.015Z,83.29
2018-09-26T06:54:46.238Z,83.27
2018-09-26T06:57:14.384Z,81.53
2018-09-26T06:59:42.679Z,82.08
2018-09-26T07:02:11.486Z,81.23
2018-09-26T07:04:39.759Z,81.66
2018-09-26T07:07:07.975Z,80.78
2018-09-26T07:09:36.233Z,80.63
2018-09-26T07:12:04.523Z,82.69
2018-09-26T07:14:32.782Z,80.21
2018-09-26T07:17:01.730Z,79.64
2018-09-26T07:19:29.932Z,79.67
2018-09-26T07:21:58.198Z,79.06
2018-09-26T07:24:26.403Z,79.61
2018-09-26T07:26:54.562Z,77.15
2018-09-26T07:29:22.955Z,76.19
2018-09-26T07:31:51.276Z,73.78
2018-09-26T07:34:23.679Z,70.27
2018-09-26T07:36:52.255Z,70.46
2018-09-26T07:39:20.506Z,70.05
2018-09-26T07:41:48.743Z,71.25
2018-09-26T07:44:17.011Z,71.61
2018-09-26T07:46:45.180Z,70.79
2018-09-26T07:49:13.355Z,69.79
2018-09-26T07:51:41.607Z,69.66
2018-09-26T07:54:09.954Z,71.01
2018-09-26T07:56:38.278Z,68.37
2018-09-26T07:59:07.234Z,67.18
2018-09-26T08:01:35.524Z,65.75
2018-09-26T08:04:03.691Z,68.21
2018-09-26T08:06:31.978Z,63.63
2018-09-26T08:09:00.173Z,63.36
2018-09-26T08:11:28.519Z,63.85
2018-09-26T08:13:56.655Z,63.75
2018-09-26T08:16:24.925Z,65.48
2018-09-26T08:18:53.191Z,64.43
2018-09-26T08:21:21.494Z,60.60
2018-09-26T08:23:49.747Z,61.78
2018-09-26T08:26:18.011Z,63.04
2018-09-26T08:28:46.444Z,62.90
2018-09-26T08:31:14.663Z,63.33
2018-09-26T08:33:42.883Z,63.96
2018-09-26T08:36:11.078Z,64.63
2018-09-26T08:38:39.405Z,64.98
2018-09-26T08:41:07.598Z,65.75
2018-09-26T08:43:35.975Z,65.03
2018-09-26T08:46:04.254Z,65.44
2018-09-26T08:48:32.523Z,65.41
2018-09-26T08:51:00.827Z,64.86
2018-09-26T08:53:29.027Z,65.31
2018-09-26T08:55:57.199Z,63.61
2018-09-26T08:58:25.432Z,64.08
2018-09-26T09:00:54.647Z,62.41
2018-09-26T09:03:22.897Z,63.05
2018-09-26T09:05:51.953Z,61.65
2018-09-26T09:08:20.460Z,61.92
2018-09-26T09:10:48.741Z,61.57
2018-09-26T09:13:17.016Z,61.07
2018-09-26T09:15:45.231Z,61.25
2018-09-26T09:18:13.475Z,60.13
2018-09-26T09:20:41.792Z,60.44
2018-09-26T09:23:10.046Z,59.45
2018-09-26T09:25:38.220Z,59.21
2018-09-26T09:28:06.495Z,58.33
2018-09-26T09:30:34.739Z,57.11
2018-09-26T09:33:02.901Z,56.92
2018-09-26T09:35:31.062Z,56.35
2018-09-26T09:37:59.302Z,56.29
2018-09-26T09:40:27.626Z,56.17
2018-09-26T09:42:55.796Z,56.74
2018-09-26T09:45:23.971Z,57.01
2018-09-26T09:47:52.140Z,55.68
2018-09-26T09:50:20.458Z,54.94
2018-09-26T09:52:48.528Z,54.14
2018-09-26T09:55:16.756Z,53.40
2018-09-26T09:57:45.540Z,55.26
2018-09-26T10:00:14.095Z,53.65
2018-09-26T10:02:42.373Z,53.76
2018-09-26T10:05:10.647Z,52.46
2018-09-26T10:07:38.918Z,52.20
2018-09-26T10:10:07.240Z,51.30
2018-09-26T10:12:35.623Z,51.75
2018-09-26T10:15:03.810Z,50.59
2018-09-26T10:17:32.094Z,50.55
2018-09-26T10:20:00.278Z,49.56
2018-09-26T10:22:28.525Z,49.40
2018-09-26T10:24:56.826Z,51.63
2018-09-26T10:27:25.034Z,48.64
2018-09-26T10:29:53.267Z,47.41
2018-09-26T10:32:21.643Z,47.37
2018-09-26T10:34:49.809Z,46.97
2018-09-26T10:37:17.939Z,46.51
2018-09-26T10:39:46.164Z,47.99
2018-09-26T10:42:14.494Z,48.21
2018-09-26T10:44:42.745Z,47.98
2018-09-26T10:47:10.935Z,47.56
2018-09-26T10:49:39.167Z,46.80
2018-09-26T10:52:07.383Z,46.69
2018-09-26T10:54:35.567Z,46.77
2018-09-26T10:57:03.798Z,47.11
2018-09-26T10:59:32.071Z,46.80
2018-09-26T11:02:00.418Z,47.00
2018-09-26T11:04:28.540Z,48.02
2018-09-26T11:06:56.807Z,46.04
2018-09-26T11:09:24.975Z,46.38
2018-09-26T11:11:53.198Z,45.73
2018-09-26T11:14:21.410Z,45.01
2018-09-26T11:16:49.675Z,45.24
2018-09-26T11:19:17.946Z,44.85
2018-09-26T11:21:46.129Z,44.84
2018-09-26T11:24:14.428Z,44.37
2018-09-26T11:26:42.849Z,45.08
2018-09-26T11:29:10.991Z,43.84
2018-09-26T11:31:39.216Z,43.30
2018-09-26T11:34:07.710Z,43.16
2018-09-26T11:36:35.791Z,43.37
2018-09-26T11:39:05.222Z,42.77
2018-09-26T11:41:33.564Z,43.22
2018-09-26T11:44:01.812Z,43.03
2018-09-26T11:46:30.131Z,43.09
2018-09-26T11:49:05.100Z,43.52
2018-09-26T11:51:33.275Z,41.58
2018-09-26T11:54:01.553Z,42.65
2018-09-26T11:56:30.328Z,41.93
2018-09-26T11:58:58.515Z,41.77
2018-09-26T12:01:26.763Z,42.53
2018-09-26T12:03:54.956Z,40.76
2018-09-26T12:06:23.321Z,40.56
2018-09-26T12:08:51.585Z,40.74
2018-09-26T12:11:19.739Z,41.72
2018-09-26T12:13:47.974Z,40.48
2018-09-26T12:16:16.258Z,40.73
2018-09-26T12:18:44.481Z,40.65
2018-09-26T12:21:12.712Z,40.03
2018-09-26T12:23:40.951Z,40.87
2018-09-26T12:26:09.200Z,39.31
2018-09-26T12:28:37.409Z,39.69
2018-09-26T12:31:05.596Z,39.30
2018-09-26T12:33:33.858Z,39.76
2018-09-26T12:36:02.105Z,39.68
2018-09-26T12:38:30.382Z,37.77
2018-09-26T12:40:58.688Z,39.20
2018-09-26T12:43:26.863Z,36.88
2018-09-26T12:45:55.135Z,37.15
2018-09-26T12:48:23.387Z,37.29
2018-09-26T12:50:51.584Z,38.76
2018-09-26T12:53:19.921Z,36.63
2018-09-26T12:55:48.203Z,37.06
2018-09-26T12:58:16.464Z,36.93
2018-09-26T13:00:44.742Z,36.49
2018-09-26T13:03:12.931Z,37.04
2018-09-26T13:05:41.128Z,36.31
2018-09-26T13:08:09.475Z,36.00
2018-09-26T13:10:37.692Z,35.65
2018-09-26T13:13:05.987Z,36.19
2018-09-26T13:15:34.160Z,35.47
2018-09-26T13:18:02.456Z,34.35
2018-09-26T13:20:30.696Z,33.28
2018-09-26T13:22:58.994Z,31.91
2018-09-26T13:25:27.287Z,32.32
2018-09-26T13:27:55.507Z,33.99
2018-09-26T13:30:23.913Z,33.93
2018-09-26T13:32:52.059Z,34.29
2018-09-26T13:35:20.337Z,34.23
2018-09-26T13:37:48.615Z,35.14
2018-09-26T13:40:16.797Z,33.04
2018-09-26T13:42:45.063Z,33.01
2018-09-26T13:45:13.254Z,33.58
2018-09-26T13:47:41.523Z,34.26
2018-09-26T13:50:09.818Z,33.62
2018-09-26T13:52:38.063Z,33.66
2018-09-26T13:55:06.265Z,32.89
2018-09-26T13:57:34.536Z,33.51
2018-09-26T14:00:02.851Z,33.63
2018-09-26T14:02:38.108Z,33.83
2018-09-26T14:05:06.467Z,33.47
2018-09-26T14:07:34.661Z,35.64
2018-09-26T14:10:02.947Z,32.82
2018-09-26T14:12:31.287Z,32.57
2018-09-26T14:14:59.550Z,33.55
2018-09-26T14:17:28.050Z,32.98
2018-09-26T14:20:12.942Z,36.07
2018-09-26T14:22:41.250Z,34.10
2018-09-26T14:25:09.530Z,35.82
2018-09-26T14:27:37.838Z,34.29
2018-09-26T14:30:06.277Z,35.12
2018-09-26T14:32:34.615Z,35.56
2018-09-26T14:35:02.985Z,36.88
2018-09-26T14:37:31.319Z,34.67
2018-09-26T14:39:59.791Z,31.82
2018-09-26T14:42:28.068Z,32.15
2018-09-26T14:44:56.407Z,33.72
2018-09-26T14:47:24.830Z,33.12
2018-09-26T14:49:53.041Z,33.15
2018-09-26T14:52:21.327Z,35.17
2018-09-26T14:54:49.604Z,34.19
2018-09-26T14:57:17.882Z,33.94
2018-09-26T14:59:46.215Z,34.34
2018-09-26T15:02:14.603Z,35.36
2018-09-26T15:04:42.813Z,34.40
2018-09-26T15:07:11.179Z,34.83
2018-09-26T15:09:39.579Z,35.27
2018-09-26T15:12:08.065Z,36.18
2018-09-26T15:14:36.643Z,36.28
2018-09-26T15:17:04.975Z,36.63
2018-09-26T15:19:33.355Z,37.53
2018-09-26T15:22:01.760Z,36.69
2018-09-26T15:24:30.084Z,36.77
2018-09-26T15:27:05.241Z,37.07
2018-09-26T15:29:33.804Z,36.91
2018-09-26T15:32:02.059Z,37.77
2018-09-26T15:34:30.372Z,36.77
2018-09-26T15:36:58.703Z,37.27
2018-09-26T15:39:27.178Z,37.29
2018-09-26T15:41:55.472Z,38.11
2018-09-26T15:44:24.009Z,37.66
2018-09-26T15:46:52.303Z,37.83
2018-09-26T15:49:20.827Z,37.88
2018-09-26T15:51:49.163Z,37.79
2018-09-26T15:54:17.505Z,37.67
2018-09-26T15:56:46.647Z,37.91
2018-09-26T15:59:15.119Z,37.92
2018-09-26T16:01:43.500Z,38.51
2018-09-26T16:04:23.746Z,37.87
2018-09-26T16:06:51.927Z,38.71
2018-09-26T16:09:20.183Z,38.60
2018-09-26T16:11:48.416Z,39.09
2018-09-26T16:14:16.798Z,39.24
2018-09-26T16:16:45.017Z,38.74
2018-09-26T16:19:13.353Z,38.95
2018-09-26T16:21:41.544Z,40.40
2018-09-26T16:24:09.868Z,39.06
2018-09-26T16:26:38.160Z,38.95
2018-09-26T16:29:07.153Z,39.70
2018-09-26T16:31:35.463Z,40.13
2018-09-26T16:34:03.808Z,43.37
2018-09-26T16:36:31.988Z,41.22
2018-09-26T16:39:00.248Z,41.57
2018-09-26T16:41:28.439Z,42.52
2018-09-26T16:43:56.796Z,43.37
2018-09-26T16:46:25.137Z,42.31
2018-09-26T16:48:57.671Z,42.62
2018-09-26T16:51:29.562Z,43.54
2018-09-26T16:54:01.987Z,46.42
2018-09-26T16:57:09.940Z,44.75
2018-09-26T16:59:41.995Z,47.20
2018-09-26T17:02:14.885Z,47.03
2018-09-26T17:04:47.531Z,49.47
2018-09-26T17:07:20.068Z,46.53
2018-09-26T17:09:52.699Z,47.90
2018-09-26T17:12:35.503Z,49.23
2018-09-26T17:15:07.989Z,50.46
2018-09-26T17:17:40.508Z,52.84
2018-09-26T17:20:23.031Z,52.90
2018-09-26T17:22:55.055Z,53.36
2018-09-26T17:25:25.334Z,51.77
2018-09-26T17:28:41.400Z,52.20
2018-09-26T17:31:13.493Z,54.02
2018-09-26T17:33:46.451Z,56.48
2018-09-26T17:36:19.347Z,58.57
2018-09-26T17:39:07.221Z,56.32
2018-09-26T17:41:38.751Z,55.85
2018-09-26T17:44:11.356Z,55.34
2018-09-26T17:46:43.896Z,56.67
2018-09-26T17:49:16.011Z,58.49
2018-09-26T17:51:49.652Z,57.57
2018-09-26T17:54:21.902Z,58.58
2018-09-26T17:56:54.657Z,58.35
2018-09-26T17:59:33.045Z,58.32
2018-09-26T18:02:10.092Z,58.81
2018-09-26T18:04:42.544Z,59.93
2018-09-26T18:07:15.102Z,58.26
2018-09-26T18:09:47.770Z,59.02
2018-09-26T18:12:21.012Z,57.23
2018-09-26T18:15:02.288Z,59.52
2018-09-26T18:17:43.650Z,60.30
2018-09-26T18:20:15.860Z,60.62
2018-09-26T18:22:50.102Z,59.37
2018-09-26T22:23:38.366Z,87.67
2018-09-26T22:26:11.175Z,87.59
2018-09-26T22:28:44.845Z,88.11
2018-09-26T22:31:16.896Z,87.67
2018-09-26T22:33:48.820Z,88.02
2018-09-26T22:36:25.663Z,88.49
2018-09-26T22:38:58.659Z,88.58
2018-09-26T22:41:34.961Z,88.85
2018-09-26T22:44:07.349Z,88.19
2018-09-26T22:46:39.839Z,88.02
2018-09-26T22:49:11.594Z,88.41
2018-09-26T22:51:43.019Z,88.50
2018-09-26T22:54:14.576Z,88.94
2018-09-26T22:56:45.988Z,90.17
2018-09-26T22:59:16.585Z,90.88
2018-09-26T23:01:46.891Z,91.03
2018-09-26T23:04:23.976Z,90.21
2018-09-26T23:06:56.459Z,90.11
2018-09-26T23:09:28.427Z,90.07
2018-09-26T23:11:56.881Z,88.73
2018-09-26T23:14:25.104Z,88.19
2018-09-26T23:16:53.419Z,89.15
2018-09-26T23:19:21.727Z,90.76
2018-09-26T23:21:50.069Z,91.02
2018-09-26T23:24:18.331Z,90.57
2018-09-26T23:26:46.673Z,91.22
2018-09-26T23:29:14.964Z,91.05
2018-09-26T23:31:43.239Z,91.16
2018-09-26T23:34:11.448Z,90.97
2018-09-26T23:36:39.675Z,91.03
2018-09-26T23:39:09.516Z,91.92
2018-09-26T23:41:38.139Z,92.45
2018-09-26T23:44:06.624Z,91.76
2018-09-26T23:46:35.467Z,91.74
2018-09-26T23:49:03.800Z,91.50
2018-09-26T23:51:32.000Z,92.02
2018-09-26T23:54:00.794Z,91.79
2018-09-26T23:56:29.422Z,92.04
2018-09-26T23:58:58.097Z,92.12
